Time;durP1;ratioP1;P1;durP2;ratioP2;P2;SDS_P1;SDS_P2;PMS_P1;PMS_P2;Temp;Humidity;BMP_temperature;BMP_pressure;BME280_temperature;BME280_humidity;BME280_pressure;Samples;Min_cycle;Max_cycle;Signal;HPM_P1;HPM_P2
2023/03/08 00:01:47;;;;;;;5.78;1.33;;;32.30;15.50;;;;;;5050370;28;20726;-71
2023/03/08 00:04:15;;;;;;;5.60;1.60;;;32.40;15.30;;;;;;5050196;28;20207;-71
2023/03/08 00:06:43;;;;;;;6.53;1.20;;;32.60;16.20;;;;;;5051277;28;20281;-71
2023/03/08 00:09:11;;;;;;;6.55;1.33;;;33.00;16.60;;;;;;5053066;28;20852;-71
2023/03/08 00:11:38;;;;;;;7.70;1.75;;;33.30;13.60;;;;;;5051051;28;20212;-71
2023/03/08 00:14:06;;;;;;;7.97;1.38;;;33.20;13.40;;;;;;5062559;28;20176;-71
2023/03/08 00:16:34;;;;;;;6.00;1.38;;;33.20;15.90;;;;;;5054924;28;20185;-70
2023/03/08 00:19:02;;;;;;;8.45;1.20;;;33.30;11.90;;;;;;5046075;28;20240;-70
2023/03/08 00:21:29;;;;;;;7.25;1.40;;;33.70;12.70;;;;;;5050510;28;20203;-70
2023/03/08 00:23:57;;;;;;;6.00;1.50;;;33.60;13.50;;;;;;5048378;28;20188;-72
2023/03/08 00:26:25;;;;;;;6.20;1.30;;;33.20;12.50;;;;;;5048936;28;20576;-71
2023/03/08 00:28:53;;;;;;;3.42;1.15;;;33.90;13.60;;;;;;5048536;28;20529;-71
2023/03/08 00:31:21;;;;;;;9.20;1.35;;;33.30;10.30;;;;;;5051413;28;20177;-71
2023/03/08 00:33:52;;;;;;;8.13;1.60;;;33.40;9.70;;;;;;5051474;28;20189;-72
2023/03/08 00:36:20;;;;;;;8.57;1.10;;;33.50;11.80;;;;;;5051616;28;20216;-73
2023/03/08 00:38:50;;;;;;;8.60;1.27;;;33.30;12.80;;;;;;5049644;28;20268;-72
2023/03/08 00:41:18;;;;;;;7.88;1.15;;;33.60;8.60;;;;;;5048749;28;20207;-73
2023/03/08 00:43:46;;;;;;;3.70;1.00;;;33.20;8.50;;;;;;5050112;28;20200;-72
2023/03/08 00:46:24;;;;;;;5.97;1.38;;;33.40;10.00;;;;;;5052274;28;20204;-72
2023/03/08 00:48:52;;;;;;;5.97;1.23;;;33.70;10.70;;;;;;5052337;28;20267;-72
2023/03/08 00:51:20;;;;;;;10.90;1.25;;;33.90;10.60;;;;;;5051601;28;20184;-73
2023/03/08 00:53:52;;;;;;;6.07;1.40;;;33.60;9.50;;;;;;5049190;28;20203;-72
2023/03/08 00:56:20;;;;;;;5.15;0.98;;;33.40;10.10;;;;;;5051278;28;20181;-73
2023/03/08 00:58:48;;;;;;;9.55;1.35;;;33.90;10.80;;;;;;5048901;28;20646;-72
2023/03/08 01:01:18;;;;;;;5.55;1.20;;;33.80;9.90;;;;;;5051179;28;20188;-71
2023/03/08 01:03:45;;;;;;;4.40;1.42;;;34.00;9.60;;;;;;5052135;28;20184;-72
2023/03/08 01:06:15;;;;;;;3.33;0.93;;;34.40;10.10;;;;;;5049732;28;20205;-71
2023/03/08 01:08:43;;;;;;;4.53;0.93;;;34.20;8.80;;;;;;5049743;28;20188;-71
2023/03/08 01:11:37;;;;;;;4.28;1.42;;;34.30;8.40;;;;;;5050400;28;20256;-72
2023/03/08 01:14:09;;;;;;;5.25;1.33;;;34.20;7.30;;;;;;5047745;28;20286;-69
2023/03/08 01:16:37;;;;;;;4.25;1.05;;;34.20;9.50;;;;;;5050916;28;20722;-69
2023/03/08 01:19:05;;;;;;;5.15;1.42;;;34.30;7.90;;;;;;5050998;28;20643;-69
2023/03/08 01:21:33;;;;;;;5.10;1.10;;;34.10;8.00;;;;;;5051815;28;20272;-70
2023/03/08 01:24:01;;;;;;;8.18;1.40;;;34.10;7.30;;;;;;5049782;28;20184;-70
2023/03/08 01:26:29;;;;;;;6.13;1.25;;;34.20;7.70;;;;;;5050694;28;20211;-69
2023/03/08 01:28:57;;;;;;;7.15;1.10;;;34.80;7.60;;;;;;5051493;28;20284;-70
2023/03/08 01:31:27;;;;;;;7.15;1.10;;;34.90;6.10;;;;;;5049263;28;20554;-70
2023/03/08 01:33:56;;;;;;;5.43;1.55;;;35.30;6.30;;;;;;5057271;28;20229;-70
2023/03/08 01:36:25;;;;;;;5.72;1.30;;;34.60;4.70;;;;;;5058509;28;20245;-70
2023/03/08 01:38:54;;;;;;;34.17;3.17;;;34.20;8.60;;;;;;5058330;28;20245;-70
2023/03/08 01:41:30;;;;;;;7.15;1.55;;;34.40;7.60;;;;;;5057587;28;20219;-70
2023/03/08 01:43:59;;;;;;;6.28;1.50;;;34.00;6.80;;;;;;5040407;28;20799;-71
2023/03/08 01:46:34;;;;;;;6.60;1.20;;;33.80;7.20;;;;;;5038541;28;20265;-71
2023/03/08 01:49:07;;;;;;;11.18;2.03;;;33.70;7.00;;;;;;5038410;28;20173;-71
2023/03/08 01:51:43;;;;;;;4.80;1.17;;;33.80;9.20;;;;;;5038448;28;20181;-71
2023/03/08 01:54:24;;;;;;;6.00;1.80;;;34.10;6.90;;;;;;5042650;28;20188;-71
2023/03/08 01:56:58;;;;;;;6.63;1.90;;;34.10;7.70;;;;;;5058371;28;20548;-71
2023/03/08 01:59:26;;;;;;;6.43;1.20;;;34.30;6.20;;;;;;5057034;28;20208;-71
2023/03/08 02:01:53;;;;;;;10.32;1.58;;;33.70;7.70;;;;;;5057530;28;20188;-71
2023/03/08 02:04:21;;;;;;;6.82;1.38;;;34.30;9.70;;;;;;5057032;28;20227;-72
2023/03/08 02:06:48;;;;;;;7.60;1.50;;;34.90;9.60;;;;;;5058193;28;20764;-72
2023/03/08 02:09:16;;;;;;;6.82;1.67;;;35.30;9.00;;;;;;5057368;28;20271;-71
2023/03/08 02:11:43;;;;;;;11.25;1.85;;;35.40;7.10;;;;;;5057722;28;20692;-71
2023/03/08 02:14:11;;;;;;;5.28;1.40;;;35.20;6.10;;;;;;5056241;28;20191;-71
2023/03/08 02:16:38;;;;;;;5.90;1.20;;;35.40;7.10;;;;;;5058043;28;20164;-71
2023/03/08 02:19:24;;;;;;;4.53;1.48;;;35.70;6.60;;;;;;5065378;28;20220;-73
2023/03/08 02:21:51;;;;;;;6.63;1.67;;;36.10;5.30;;;;;;5038201;28;20200;-71
2023/03/08 02:24:24;;;;;;;6.10;1.40;;;36.00;6.70;;;;;;5054262;28;20192;-71
2023/03/08 02:26:59;;;;;;;7.55;1.45;;;35.60;5.30;;;;;;5058202;28;20357;-71
2023/03/08 02:29:26;;;;;;;5.82;1.45;;;34.90;4.50;;;;;;5061793;28;20199;-70
2023/03/08 02:31:57;;;;;;;9.77;1.60;;;35.10;6.40;;;;;;5057822;28;20212;-71
2023/03/08 02:37:47;;;;;;;4.45;1.23;;;35.10;7.70;;;;;;5053053;28;20187;-71
2023/03/08 02:40:14;;;;;;;6.20;1.40;;;34.30;5.10;;;;;;5057694;28;20191;-71
2023/03/08 02:42:42;;;;;;;6.90;1.25;;;34.20;3.90;;;;;;5057940;28;20318;-71
2023/03/08 02:45:10;;;;;;;6.60;1.08;;;34.70;8.50;;;;;;5052460;28;20187;-71
2023/03/08 02:47:37;;;;;;;6.30;1.63;;;35.60;7.30;;;;;;5053363;28;20311;-71
2023/03/08 02:50:05;;;;;;;5.10;1.17;;;35.90;4.30;;;;;;5052140;28;20188;-70
2023/03/08 02:52:33;;;;;;;4.85;1.55;;;35.30;4.30;;;;;;5052765;28;20185;-70
2023/03/08 02:55:00;;;;;;;4.80;1.30;;;35.30;3.90;;;;;;5053434;28;20176;-71
2023/03/08 02:57:27;;;;;;;4.05;0.98;;;35.90;4.60;;;;;;5053215;28;20188;-70
2023/03/08 02:59:55;;;;;;;9.35;1.60;;;35.80;3.90;;;;;;5052410;28;20223;-71
2023/03/08 03:02:22;;;;;;;6.38;1.08;;;35.60;3.70;;;;;;5066691;28;20293;-71
2023/03/08 03:04:50;;;;;;;9.20;1.05;;;35.30;3.50;;;;;;5052476;28;20218;-71
2023/03/08 03:07:17;;;;;;;7.22;0.90;;;35.10;4.00;;;;;;5051373;28;20234;-71
2023/03/08 03:09:44;;;;;;;8.57;1.30;;;35.10;1.40;;;;;;5053217;28;20180;-71
2023/03/08 03:12:12;;;;;;;6.55;1.50;;;35.00;2.50;;;;;;5054296;28;20184;-71
2023/03/08 03:14:39;;;;;;;5.32;1.25;;;34.60;2.70;;;;;;5049447;28;20546;-71
2023/03/08 03:17:06;;;;;;;3.67;1.10;;;34.70;2.80;;;;;;5053995;28;20200;-70
2023/03/08 03:19:37;;;;;;;5.35;1.10;;;34.90;2.10;;;;;;5053087;28;20228;-71
2023/03/08 03:22:05;;;;;;;4.13;1.20;;;35.30;1.00;;;;;;5052039;28;20204;-71
2023/03/08 03:24:33;;;;;;;10.07;1.27;;;35.30;1.40;;;;;;5052151;28;20189;-70
2023/03/08 03:27:01;;;;;;;3.78;1.27;;;35.30;1.30;;;;;;5062260;28;20228;-70
2023/03/08 03:29:29;;;;;;;3.22;0.70;;;35.20;1.80;;;;;;5052896;28;20188;-71
2023/03/08 03:31:57;;;;;;;4.57;1.00;;;35.10;1.00;;;;;;5052789;28;20506;-71
2023/03/08 03:34:25;;;;;;;3.45;1.00;;;35.50;2.30;;;;;;5050802;28;20271;-71
2023/03/08 03:36:52;;;;;;;4.13;1.00;;;35.50;1.00;;;;;;5052589;28;20189;-70
2023/03/08 03:39:20;;;;;;;3.67;0.80;;;35.50;1.00;;;;;;5052112;28;20193;-71
2023/03/08 03:41:48;;;;;;;4.45;1.15;;;35.60;1.00;;;;;;5052708;28;20531;-70
2023/03/08 03:44:16;;;;;;;8.73;1.20;;;35.30;1.00;;;;;;5052998;28;20173;-71
2023/03/08 03:46:44;;;;;;;4.85;0.82;;;35.30;1.00;;;;;;5052064;28;20893;-71
2023/03/08 03:49:11;;;;;;;4.63;0.75;;;35.30;1.00;;;;;;5053080;28;20187;-70
2023/03/08 03:51:39;;;;;;;3.70;0.90;;;35.40;1.00;;;;;;5052672;28;20307;-70
2023/03/08 03:54:07;;;;;;;4.60;1.00;;;35.30;1.00;;;;;;5051827;28;20239;-71
2023/03/08 03:56:35;;;;;;;2.35;0.75;;;35.20;1.00;;;;;;5053417;28;20183;-70
2023/03/08 03:59:02;;;;;;;3.78;0.80;;;35.30;1.00;;;;;;5052729;28;20275;-71
2023/03/08 04:01:31;;;;;;;4.13;1.15;;;35.60;1.00;;;;;;5049989;28;20189;-71
2023/03/08 04:03:59;;;;;;;3.33;0.90;;;35.40;1.00;;;;;;5031521;28;20733;-71
2023/03/08 04:06:30;;;;;;;4.75;0.70;;;35.40;1.00;;;;;;5032329;28;20674;-72
2023/03/08 04:09:01;;;;;;;6.60;0.82;;;35.30;1.00;;;;;;5032876;28;20904;-71
2023/03/08 04:11:34;;;;;;;1.75;0.60;;;35.20;1.00;;;;;;5048100;28;20188;-72
2023/03/08 04:14:02;;;;;;;4.85;0.80;;;35.00;1.00;;;;;;5045033;28;20185;-71
2023/03/08 04:16:35;;;;;;;4.57;0.70;;;34.50;1.00;;;;;;5049187;28;20214;-69
2023/03/08 04:19:05;;;;;;;6.10;1.30;;;34.70;1.00;;;;;;5052412;28;20220;-70
2023/03/08 04:21:34;;;;;;;5.68;0.70;;;34.90;1.00;;;;;;5052797;28;20180;-69
2023/03/08 04:24:02;;;;;;;2.08;0.60;;;35.00;1.00;;;;;;5052802;28;20172;-71
2023/03/08 04:26:31;;;;;;;2.95;0.63;;;35.10;1.00;;;;;;5051642;28;20752;-71
2023/03/08 04:28:58;;;;;;;5.50;1.17;;;35.00;1.00;;;;;;5051391;28;20185;-71
2023/03/08 04:31:28;;;;;;;6.10;1.02;;;35.10;1.00;;;;;;5051737;28;20208;-72
2023/03/08 04:33:59;;;;;;;5.75;0.73;;;34.80;1.00;;;;;;5052498;28;20172;-71
2023/03/08 04:36:27;;;;;;;4.60;0.65;;;34.70;1.00;;;;;;5051615;28;20599;-71
2023/03/08 04:38:55;;;;;;;5.80;0.70;;;34.70;1.00;;;;;;5051714;28;20184;-70
2023/03/08 04:41:24;;;;;;;1.98;0.70;;;34.70;1.00;;;;;;5052462;28;20176;-70
2023/03/08 04:43:54;;;;;;;7.60;0.60;;;34.70;1.00;;;;;;5052290;28;20759;-70
2023/03/08 04:46:25;;;;;;;7.10;0.80;;;34.80;1.00;;;;;;5047539;28;20251;-71
2023/03/08 04:48:54;;;;;;;10.38;0.90;;;34.90;1.00;;;;;;5032527;28;20169;-71
2023/03/08 04:51:24;;;;;;;4.90;0.65;;;34.70;1.00;;;;;;5037094;28;20190;-70
2023/03/08 04:53:52;;;;;;;5.90;0.80;;;34.50;1.00;;;;;;5049849;28;20194;-70
2023/03/08 04:56:20;;;;;;;15.07;1.33;;;34.60;1.00;;;;;;5050510;28;20188;-70
2023/03/08 04:58:48;;;;;;;9.75;1.10;;;34.60;1.00;;;;;;5049695;28;20192;-70
2023/03/08 05:01:18;;;;;;;6.70;0.75;;;34.50;1.00;;;;;;5051450;28;20263;-70
2023/03/08 05:03:50;;;;;;;8.40;0.93;;;34.30;1.00;;;;;;5051680;28;20255;-69
2023/03/08 05:06:20;;;;;;;1.15;0.40;;;34.00;1.00;;;;;;5050202;28;20208;-69
2023/03/08 05:08:48;;;;;;;2.72;0.75;;;33.40;1.00;;;;;;5051102;28;20246;-70
2023/03/08 05:11:24;;;;;;;2.15;0.32;;;33.20;1.00;;;;;;5050197;28;20168;-70
2023/03/08 05:13:54;;;;;;;4.93;0.65;;;33.40;1.00;;;;;;5050347;28;20191;-72
2023/03/08 05:16:22;;;;;;;8.98;0.73;;;33.80;1.00;;;;;;5048371;28;20208;-70
2023/03/08 05:18:50;;;;;;;7.28;0.60;;;34.10;1.00;;;;;;5048577;28;20245;-70
2023/03/08 05:21:20;;;;;;;2.53;0.57;;;34.00;1.00;;;;;;5051449;28;20195;-70
2023/03/08 05:23:48;;;;;;;3.80;0.57;;;33.80;1.00;;;;;;5050383;28;20212;-69
2023/03/08 05:26:17;;;;;;;4.88;0.60;;;33.90;1.00;;;;;;5049319;28;20883;-70
2023/03/08 05:28:45;;;;;;;3.70;0.60;;;34.10;1.00;;;;;;5035071;28;20554;-71
2023/03/08 05:31:18;;;;;;;3.40;0.50;;;34.30;1.00;;;;;;5050275;28;20191;-69
2023/03/08 05:33:49;;;;;;;3.72;0.77;;;34.60;1.00;;;;;;5048345;28;20562;-69
2023/03/08 05:36:18;;;;;;;3.95;0.47;;;35.00;1.00;;;;;;5049871;28;20270;-69
2023/03/08 05:38:52;;;;;;;4.72;0.60;;;34.40;1.00;;;;;;5050111;28;20188;-69
2023/03/08 05:41:20;;;;;;;4.05;0.80;;;33.90;1.00;;;;;;5050590;28;20195;-69
2023/03/08 05:43:48;;;;;;;3.67;0.50;;;33.50;1.00;;;;;;5050407;28;20262;-71
2023/03/08 05:46:19;;;;;;;2.28;0.40;;;33.10;1.00;;;;;;5050651;28;20211;-72
2023/03/08 05:48:47;;;;;;;4.03;0.63;;;33.00;1.00;;;;;;5051182;28;20168;-70
2023/03/08 05:51:17;;;;;;;5.10;0.70;;;32.90;1.00;;;;;;5050072;28;20196;-70
2023/03/08 05:53:46;;;;;;;5.13;1.00;;;32.80;1.00;;;;;;5049406;28;20263;-71
2023/03/08 05:56:22;;;;;;;3.88;0.80;;;32.80;1.00;;;;;;5051246;28;20180;-72
2023/03/08 05:58:51;;;;;;;4.75;0.75;;;32.60;1.00;;;;;;5051556;28;20269;-70
2023/03/08 06:01:26;;;;;;;4.22;1.00;;;32.50;1.00;;;;;;5050414;28;20206;-72
2023/03/08 06:04:05;;;;;;;3.92;0.73;;;32.50;1.00;;;;;;5050329;28;20230;-72
2023/03/08 06:06:32;;;;;;;3.90;0.80;;;32.40;1.00;;;;;;5030970;28;20343;-71
2023/03/08 06:09:00;;;;;;;3.65;0.77;;;32.40;1.00;;;;;;5031168;28;20174;-72
2023/03/08 06:11:28;;;;;;;5.00;0.50;;;32.60;1.00;;;;;;5034545;28;20188;-72
2023/03/08 06:13:56;;;;;;;6.15;0.82;;;32.70;1.00;;;;;;5050040;28;20410;-72
2023/03/08 06:16:24;;;;;;;2.05;0.73;;;32.90;1.00;;;;;;5050847;28;20237;-71
2023/03/08 06:18:51;;;;;;;2.63;0.45;;;33.00;1.00;;;;;;5052373;28;20168;-71
2023/03/08 06:21:21;;;;;;;2.42;0.88;;;33.10;1.00;;;;;;5054426;28;20176;-70
2023/03/08 06:23:50;;;;;;;2.47;0.63;;;33.20;1.00;;;;;;5053434;28;20176;-71
2023/03/08 06:26:18;;;;;;;2.78;0.70;;;33.30;1.00;;;;;;5038838;28;20221;-72
2023/03/08 06:28:46;;;;;;;5.55;0.80;;;33.10;1.00;;;;;;5041870;28;20184;-71
2023/03/08 06:31:16;;;;;;;5.07;0.80;;;33.00;1.00;;;;;;5054202;28;20177;-69
2023/03/08 06:33:44;;;;;;;6.93;0.88;;;33.10;1.00;;;;;;5054562;28;20172;-72
2023/03/08 06:36:14;;;;;;;2.92;0.60;;;32.90;1.00;;;;;;5044229;28;20654;-71
2023/03/08 06:38:42;;;;;;;4.30;0.82;;;32.80;1.00;;;;;;5041082;28;20267;-71
2023/03/08 06:41:11;;;;;;;21.38;1.38;;;33.00;1.00;;;;;;5054148;28;20181;-71
2023/03/08 06:43:39;;;;;;;2.50;0.52;;;32.90;1.00;;;;;;5053952;28;20180;-71
2023/03/08 06:46:12;;;;;;;3.67;0.65;;;32.70;1.00;;;;;;5054139;28;20208;-70
2023/03/08 06:48:40;;;;;;;3.47;0.55;;;32.80;1.00;;;;;;5052282;28;20184;-69
2023/03/08 06:51:08;;;;;;;2.22;0.70;;;32.70;1.00;;;;;;5053807;28;20227;-70
2023/03/08 06:53:37;;;;;;;3.38;0.40;;;32.60;1.00;;;;;;5049466;28;20260;-70
2023/03/08 06:59:26;;;;;;;2.78;0.40;;;32.60;1.00;;;;;;5045496;28;20330;-69
2023/03/08 07:01:54;;;;;;;4.75;0.90;;;32.60;1.00;;;;;;5048808;28;20187;-71
2023/03/08 07:04:22;;;;;;;2.83;0.93;;;32.60;1.00;;;;;;5055452;28;20177;-71
2023/03/08 07:06:49;;;;;;;2.22;0.57;;;32.70;1.00;;;;;;5055478;28;20197;-70
2023/03/08 07:09:17;;;;;;;3.28;0.80;;;32.60;1.00;;;;;;5055431;28;20202;-71
2023/03/08 07:11:45;;;;;;;1.15;0.50;;;32.40;1.00;;;;;;5053922;28;20258;-71
2023/03/08 07:14:13;;;;;;;3.45;0.50;;;32.30;1.00;;;;;;5055197;28;20180;-71
2023/03/08 07:16:40;;;;;;;4.22;1.02;;;32.10;1.00;;;;;;5055252;28;20193;-70
2023/03/08 07:19:08;;;;;;;2.38;0.57;;;31.90;1.00;;;;;;5054791;28;20587;-71
2023/03/08 07:21:36;;;;;;;1.92;0.35;;;31.50;1.00;;;;;;5055216;28;20267;-71
2023/03/08 07:24:04;;;;;;;2.22;0.63;;;31.30;1.00;;;;;;5054948;28;20179;-71
2023/03/08 07:26:31;;;;;;;1.85;0.77;;;31.10;1.00;;;;;;5054923;28;20208;-70
2023/03/08 07:28:59;;;;;;;3.47;0.70;;;31.00;1.00;;;;;;5054868;28;20168;-71
2023/03/08 07:31:28;;;;;;;2.77;0.43;;;30.90;1.00;;;;;;5054234;28;20177;-71
2023/03/08 07:33:56;;;;;;;3.90;1.03;;;30.70;1.00;;;;;;5054832;28;20197;-71
2023/03/08 07:36:28;;;;;;;10.90;0.97;;;30.50;1.00;;;;;;5054814;28;20264;-70
2023/03/08 07:38:56;;;;;;;7.07;0.70;;;30.40;1.00;;;;;;5054660;28;20571;-70
2023/03/08 07:41:23;;;;;;;8.50;0.83;;;30.20;1.00;;;;;;5054721;28;20623;-71
2023/03/08 07:43:51;;;;;;;3.00;0.73;;;30.10;1.00;;;;;;5054696;28;20664;-70
2023/03/08 07:46:19;;;;;;;6.93;1.20;;;30.00;1.00;;;;;;5054712;28;20197;-71
2023/03/08 07:48:47;;;;;;;7.20;1.08;;;29.90;1.00;;;;;;5054612;28;20208;-70
2023/03/08 07:51:14;;;;;;;2.77;1.00;;;29.80;1.00;;;;;;5054764;28;20573;-70
2023/03/08 07:53:45;;;;;;;6.97;1.40;;;29.70;1.00;;;;;;5054620;28;20259;-70
2023/03/08 07:56:17;;;;;;;7.37;1.80;;;29.60;2.90;;;;;;5054563;28;20192;-70
2023/03/08 08:02:11;;;;;;;9.00;2.10;;;28.90;32.90;;;;;;5054075;28;20187;-70
2023/03/08 08:04:39;;;;;;;9.20;1.73;;;28.30;47.80;;;;;;5054644;28;20238;-71
2023/03/08 08:07:11;;;;;;;8.60;1.90;;;28.00;56.20;;;;;;5054291;28;20236;-72
2023/03/08 08:09:39;;;;;;;6.00;2.20;;;27.80;63.90;;;;;;5054662;28;20247;-71
2023/03/08 08:12:10;;;;;;;9.10;1.97;;;27.60;72.70;;;;;;5054209;28;20676;-71
2023/03/08 08:14:37;;;;;;;6.93;1.83;;;27.30;78.70;;;;;;5054192;28;20211;-71
2023/03/08 08:17:05;;;;;;;7.63;2.00;;;27.20;87.60;;;;;;5053855;28;20235;-70
2023/03/08 08:19:33;;;;;;;15.17;2.53;;;27.00;89.10;;;;;;5053646;28;20228;-72
2023/03/08 08:22:01;;;;;;;9.60;1.80;;;27.00;91.00;;;;;;5053800;28;20184;-71
2023/03/08 08:24:31;;;;;;;9.03;2.53;;;26.90;91.30;;;;;;5054049;28;20183;-71
2023/03/08 08:26:59;;;;;;;6.10;1.90;;;26.80;93.60;;;;;;5053735;28;20262;-71
2023/03/08 08:29:27;;;;;;;12.93;2.30;;;26.70;95.10;;;;;;5053757;28;20172;-72
2023/03/08 08:35:17;;;;;;;8.73;1.90;;;26.50;99.90;;;;;;5053077;28;20239;-70
2023/03/08 08:37:48;;;;;;;7.93;1.90;;;26.40;99.90;;;;;;5053724;28;20181;-71
2023/03/08 08:40:16;;;;;;;9.47;2.33;;;26.30;99.90;;;;;;5053563;28;20198;-71
2023/03/08 08:42:43;;;;;;;10.50;2.10;;;26.30;99.90;;;;;;5052486;28;20181;-71
2023/03/08 08:45:11;;;;;;;4.57;1.50;;;26.20;99.90;;;;;;5053561;28;20177;-71
2023/03/08 08:47:44;;;;;;;20.73;2.77;;;26.20;99.90;;;;;;5053333;28;20586;-71
2023/03/08 08:50:12;;;;;;;12.40;2.57;;;26.00;99.90;;;;;;5053248;28;20585;-72
2023/03/08 08:52:39;;;;;;;7.47;2.03;;;25.90;99.90;;;;;;5053367;28;20594;-71
2023/03/08 08:55:07;;;;;;;6.97;1.80;;;25.90;99.90;;;;;;5052236;28;20237;-71
2023/03/08 08:57:35;;;;;;;11.27;2.07;;;25.90;99.90;;;;;;5053337;28;20213;-71
2023/03/08 09:00:07;;;;;;;10.63;2.00;;;25.90;99.90;;;;;;5053366;28;20172;-71
2023/03/08 09:05:43;;;;;;;10.80;2.77;;;25.80;99.90;;;;;;5052747;28;20562;-71
2023/03/08 09:08:12;;;;;;;8.50;2.37;;;25.60;99.90;;;;;;5053229;28;20273;-71
2023/03/08 09:10:40;;;;;;;9.47;2.60;;;25.60;99.90;;;;;;5053600;28;20594;-71
2023/03/08 09:13:08;;;;;;;8.20;2.40;;;25.40;99.90;;;;;;5053068;28;20176;-71
2023/03/08 09:15:36;;;;;;;10.87;2.73;;;25.30;99.90;;;;;;5053017;28;20164;-71
2023/03/08 09:18:04;;;;;;;7.23;1.53;;;25.30;99.90;;;;;;5052926;28;20173;-71
2023/03/08 09:20:32;;;;;;;9.67;2.47;;;25.10;99.90;;;;;;5052865;28;20250;-71
2023/03/08 09:23:00;;;;;;;12.13;1.80;;;25.00;99.90;;;;;;5053036;28;20195;-71
2023/03/08 09:25:28;;;;;;;10.93;2.07;;;24.90;99.90;;;;;;5053188;28;20190;-71
2023/03/08 09:27:55;;;;;;;7.50;2.07;;;24.80;99.90;;;;;;5052209;28;20227;-71
2023/03/08 09:30:23;;;;;;;10.43;2.37;;;24.70;99.90;;;;;;5052935;28;20172;-71
2023/03/08 09:32:51;;;;;;;8.07;2.50;;;24.60;99.90;;;;;;5053048;28;20172;-70
2023/03/08 09:35:22;;;;;;;11.17;2.00;;;24.60;99.90;;;;;;5052769;28;20172;-71
2023/03/08 09:37:50;;;;;;;9.17;2.23;;;24.60;99.90;;;;;;5052740;28;20575;-71
2023/03/08 09:40:29;;;;;;;12.67;2.13;;;24.50;99.90;;;;;;5052711;28;20222;-71
2023/03/08 09:43:05;;;;;;;7.90;2.10;;;24.40;99.90;;;;;;5052912;28;20184;-71
2023/03/08 09:45:33;;;;;;;9.47;2.43;;;24.40;99.90;;;;;;5052715;28;20571;-71
2023/03/08 09:48:03;;;;;;;10.63;2.23;;;24.20;99.90;;;;;;5052594;28;20216;-71
2023/03/08 09:50:57;;;;;;;5.40;2.03;;;24.20;99.90;;;;;;5052728;28;20180;-71
2023/03/08 09:53:35;;;;;;;10.13;2.20;;;24.10;99.90;;;;;;5053779;28;20196;-71
2023/03/08 09:56:05;;;;;;;11.27;1.93;;;24.00;99.90;;;;;;5056637;28;20657;-70
2023/03/08 09:59:01;;;;;;;5.17;1.90;;;23.90;99.90;;;;;;5056333;28;20222;-71
2023/03/08 10:01:29;;;;;;;5.60;1.50;;;23.80;99.90;;;;;;5056458;28;20195;-70
2023/03/08 10:04:16;;;;;;;14.97;2.83;;;23.80;99.90;;;;;;5056444;28;20653;-70
2023/03/08 10:07:03;;;;;;;6.70;1.90;;;23.70;99.90;;;;;;5055001;28;20559;-71
2023/03/08 10:09:46;;;;;;;14.00;2.13;;;23.70;99.90;;;;;;5056748;28;20185;-70
2023/03/08 10:12:51;;;;;;;7.90;1.80;;;23.70;99.90;;;;;;5056367;28;20177;-71
2023/03/08 10:15:22;;;;;;;7.77;2.47;;;23.70;99.90;;;;;;5055065;28;20180;-71
2023/03/08 10:18:01;;;;;;;8.23;1.90;;;23.70;99.90;;;;;;5056306;28;20173;-71
2023/03/08 10:20:36;;;;;;;5.77;1.87;;;23.60;99.90;;;;;;5056126;28;20228;-71
2023/03/08 10:23:25;;;;;;;5.63;1.60;;;23.70;99.90;;;;;;5056242;28;20186;-70
2023/03/08 10:25:53;;;;;;;14.80;2.60;;;23.70;99.90;;;;;;5056229;28;20658;-70
2023/03/08 10:28:26;;;;;;;6.40;2.20;;;23.70;99.90;;;;;;5056149;28;20184;-70
2023/03/08 10:31:12;;;;;;;6.77;1.97;;;23.60;99.90;;;;;;5056280;28;20172;-71
2023/03/08 10:33:41;;;;;;;9.20;1.93;;;23.60;99.90;;;;;;5056047;28;20191;-71
2023/03/08 10:36:18;;;;;;;5.40;2.03;;;23.60;99.90;;;;;;5056091;28;20643;-70
2023/03/08 10:38:58;;;;;;;8.20;1.60;;;23.50;99.90;;;;;;5056081;28;20637;-70
2023/03/08 10:41:27;;;;;;;3.80;1.23;;;23.60;99.90;;;;;;5055272;28;20200;-70
2023/03/08 10:43:56;;;;;;;5.33;1.70;;;23.70;99.90;;;;;;5055880;28;20173;-70
2023/03/08 10:46:29;;;;;;;10.70;1.50;;;23.70;99.90;;;;;;5054229;28;20209;-71
2023/03/08 10:49:15;;;;;;;7.20;1.43;;;23.60;99.90;;;;;;5055723;28;20184;-70
2023/03/08 10:52:01;;;;;;;5.03;1.53;;;23.50;99.90;;;;;;5055847;28;20538;-71
2023/03/08 10:54:29;;;;;;;5.17;1.50;;;23.40;99.90;;;;;;5055765;28;20169;-71
2023/03/08 10:57:01;;;;;;;6.37;1.60;;;23.50;99.90;;;;;;5055383;28;20239;-70
2023/03/08 10:59:34;;;;;;;4.00;1.50;;;23.50;99.90;;;;;;5055579;28;20177;-71
2023/03/08 11:02:17;;;;;;;2.90;1.37;;;23.40;99.90;;;;;;5055840;28;20172;-71
2023/03/08 11:04:56;;;;;;;7.43;2.47;;;23.30;99.90;;;;;;5054535;28;20169;-71
2023/03/08 11:07:30;;;;;;;5.80;1.37;;;23.20;99.90;;;;;;5055515;28;20235;-71
2023/03/08 11:10:28;;;;;;;5.50;1.20;;;23.10;99.90;;;;;;5055544;28;20226;-71
2023/03/08 11:13:26;;;;;;;2.43;1.37;;;22.90;99.90;;;;;;5047372;28;20189;-72
2023/03/08 11:16:19;;;;;;;4.23;1.40;;;22.70;99.90;;;;;;5049804;28;20188;-72
2023/03/08 11:19:11;;;;;;;6.00;1.60;;;22.50;99.90;;;;;;5055265;28;20169;-72
2023/03/08 11:22:04;;;;;;;8.40;1.60;;;22.50;99.90;;;;;;5055452;28;20255;-71
2023/03/08 11:24:56;;;;;;;5.17;1.60;;;22.50;99.90;;;;;;5055182;28;20524;-72
2023/03/08 11:27:28;;;;;;;6.73;1.63;;;22.30;99.90;;;;;;5055110;28;20204;-72
2023/03/08 11:30:11;;;;;;;7.40;1.40;;;22.20;99.90;;;;;;5055225;28;20172;-72
2023/03/08 11:32:48;;;;;;;4.23;1.13;;;22.10;99.90;;;;;;5055002;28;20176;-71
2023/03/08 11:35:46;;;;;;;2.03;0.87;;;21.90;99.90;;;;;;5055355;28;20294;-72
2023/03/08 11:38:34;;;;;;;6.00;1.20;;;22.00;99.90;;;;;;5054806;28;20172;-72
2023/03/08 11:41:25;;;;;;;3.20;0.50;;;22.40;99.90;;;;;;5054944;28;20177;-72
2023/03/08 11:44:02;;;;;;;5.17;1.00;;;22.50;99.90;;;;;;5054887;28;20189;-72
2023/03/08 11:47:03;;;;;;;4.43;1.10;;;22.50;99.90;;;;;;5054740;28;20704;-72
2023/03/08 11:49:37;;;;;;;2.83;0.80;;;22.60;99.90;;;;;;5055111;28;20268;-71
2023/03/08 11:52:22;;;;;;;4.90;1.20;;;22.80;98.70;;;;;;5047180;28;20860;-74
2023/03/08 11:58:19;;;;;;;4.37;0.73;;;23.10;94.80;;;;;;5059147;28;20194;-69
2023/03/08 12:00:51;;;;;;;4.47;0.83;;;23.20;93.90;;;;;;5049937;28;20274;-69
2023/03/08 12:06:45;;;;;;;4.37;1.43;;;23.30;91.80;;;;;;5050460;28;20226;-69
2023/03/08 12:09:31;;;;;;;4.33;0.93;;;23.40;91.50;;;;;;5048294;28;20239;-69
2023/03/08 12:12:03;;;;;;;2.87;1.00;;;23.40;90.80;;;;;;5049884;28;20192;-69
2023/03/08 12:14:46;;;;;;;4.97;1.07;;;23.30;90.50;;;;;;5051061;28;20266;-69
2023/03/08 12:17:25;;;;;;;3.10;0.80;;;23.30;90.20;;;;;;5051893;28;20184;-69
2023/03/08 12:19:52;;;;;;;4.20;1.00;;;23.30;89.20;;;;;;5052207;28;20282;-68
2023/03/08 12:22:44;;;;;;;3.20;0.80;;;23.30;88.60;;;;;;5052811;28;20952;-68
2023/03/08 12:25:34;;;;;;;5.83;0.90;;;23.40;87.50;;;;;;5051913;28;20215;-69
2023/03/08 12:28:31;;;;;;;3.77;0.80;;;23.40;86.20;;;;;;5050336;28;20252;-70
2023/03/08 12:31:18;;;;;;;3.43;1.00;;;23.40;84.50;;;;;;5047799;28;20600;-71
2023/03/08 12:33:49;;;;;;;3.47;0.80;;;23.40;84.30;;;;;;5046183;28;20275;-70
2023/03/08 12:36:17;;;;;;;2.73;0.97;;;23.40;84.20;;;;;;5049556;28;20589;-69
2023/03/08 12:38:48;;;;;;;4.43;0.83;;;23.30;83.90;;;;;;5051002;28;20189;-70
2023/03/08 12:41:30;;;;;;;1.70;0.80;;;23.30;82.90;;;;;;5051437;28;20188;-69
2023/03/08 12:44:06;;;;;;;9.90;1.10;;;23.30;82.30;;;;;;5052408;28;20180;-69
2023/03/08 12:47:15;;;;;;;1.97;0.80;;;23.30;82.90;;;;;;5053386;28;20200;-69
2023/03/08 12:49:52;;;;;;;6.63;1.20;;;23.20;82.60;;;;;;5031270;28;20200;-69
2023/03/08 12:52:19;;;;;;;3.50;0.67;;;23.30;81.50;;;;;;5052071;28;20638;-71
2023/03/08 12:55:19;;;;;;;6.83;1.13;;;23.20;80.20;;;;;;5051726;28;20181;-71
2023/03/08 12:57:50;;;;;;;6.50;0.80;;;23.30;80.40;;;;;;5043405;28;20204;-70
2023/03/08 13:00:26;;;;;;;3.40;1.00;;;23.30;80.50;;;;;;5032910;28;20204;-69
2023/03/08 13:03:12;;;;;;;3.13;0.83;;;23.30;79.70;;;;;;5033447;28;20188;-70
2023/03/08 13:05:48;;;;;;;4.43;0.90;;;23.20;80.30;;;;;;5050270;28;20172;-70
2023/03/08 13:08:15;;;;;;;3.37;1.13;;;23.10;80.50;;;;;;5051545;28;20683;-69
2023/03/08 13:11:10;;;;;;;4.67;1.13;;;23.10;79.70;;;;;;5051395;28;20189;-69
2023/03/08 13:13:47;;;;;;;3.00;0.80;;;23.00;81.20;;;;;;5051359;28;20181;-69
2023/03/08 13:16:37;;;;;;;6.07;0.90;;;22.90;82.20;;;;;;5050774;28;20217;-68
2023/03/08 13:19:20;;;;;;;2.67;1.00;;;22.80;83.00;;;;;;5049453;28;20228;-69
2023/03/08 13:21:53;;;;;;;7.90;1.00;;;22.60;85.00;;;;;;5045464;28;20234;-69
2023/03/08 13:24:36;;;;;;;6.47;0.80;;;22.60;84.90;;;;;;5051492;28;20195;-69
2023/03/08 13:27:14;;;;;;;2.93;1.07;;;22.60;84.40;;;;;;5049542;28;20219;-69
2023/03/08 13:29:43;;;;;;;3.93;0.90;;;22.60;86.60;;;;;;5051298;28;20275;-70
2023/03/08 13:32:19;;;;;;;5.93;0.90;;;22.50;87.40;;;;;;5050675;28;20184;-69
2023/03/08 13:35:14;;;;;;;3.37;1.00;;;22.40;86.00;;;;;;5049328;28;20272;-69
2023/03/08 13:37:41;;;;;;;5.20;0.87;;;22.40;87.70;;;;;;5048843;28;20184;-69
2023/03/08 13:40:19;;;;;;;5.53;1.00;;;22.40;88.30;;;;;;5050594;28;20185;-69